Time;durP1;ratioP1;P1;durP2;ratioP2;P2;SDS_P1;SDS_P2;PMS_P1;PMS_P2;Temp;Humidity;BMP_temperature;BMP_pressure;BME280_temperature;BME280_humidity;BME280_pressure;Samples;Min_cycle;Max_cycle;Signal;HPM_P1;HPM_P2
2021/11/02 00:01:10;;;;;;;1.60;1.20;;;8.60;98.20;;;;;;5090384;28;20967;-76
2021/11/02 00:03:37;;;;;;;1.53;1.20;;;8.60;98.20;;;;;;5089875;28;20484;-76
2021/11/02 00:06:04;;;;;;;1.60;1.27;;;8.70;98.20;;;;;;5089833;28;20480;-76
2021/11/02 00:08:31;;;;;;;1.60;1.30;;;8.70;98.20;;;;;;5090052;28;20830;-76
2021/11/02 00:10:59;;;;;;;1.60;1.20;;;8.70;98.20;;;;;;5090005;28;20460;-76
2021/11/02 00:13:30;;;;;;;1.60;1.27;;;8.70;98.20;;;;;;5090559;28;20453;-76
2021/11/02 00:16:03;;;;;;;1.57;1.20;;;8.80;98.20;;;;;;5089066;28;20481;-76
2021/11/02 00:18:30;;;;;;;1.60;1.20;;;8.80;98.20;;;;;;5090085;28;20445;-76
2021/11/02 00:21:00;;;;;;;1.57;1.30;;;8.80;98.20;;;;;;5090880;28;20453;-76
2021/11/02 00:23:29;;;;;;;1.60;1.30;;;8.80;98.20;;;;;;5092671;28;20512;-76
2021/11/02 00:25:55;;;;;;;1.60;1.20;;;8.80;98.20;;;;;;5092251;28;20477;-76
2021/11/02 00:28:23;;;;;;;1.60;1.20;;;8.80;98.20;;;;;;5091746;28;20456;-76
2021/11/02 00:30:50;;;;;;;1.60;1.20;;;8.70;98.20;;;;;;5093314;28;20635;-76
2021/11/02 00:33:17;;;;;;;1.57;1.20;;;8.70;98.20;;;;;;5090893;28;20452;-76
2021/11/02 00:35:44;;;;;;;1.60;1.20;;;8.70;98.20;;;;;;5090419;28;20464;-76
2021/11/02 00:38:11;;;;;;;1.60;1.30;;;8.70;98.20;;;;;;5090771;28;20465;-76
2021/11/02 00:40:40;;;;;;;1.60;1.30;;;8.60;98.20;;;;;;5088144;28;20476;-76
2021/11/02 00:43:09;;;;;;;1.53;1.20;;;8.60;98.20;;;;;;5089924;28;20786;-76
2021/11/02 00:45:39;;;;;;;1.60;1.20;;;8.60;98.20;;;;;;5090528;28;20808;-76
2021/11/02 00:48:08;;;;;;;1.60;1.20;;;8.60;98.20;;;;;;5089762;28;20962;-76
2021/11/02 00:50:36;;;;;;;1.60;1.30;;;8.60;98.20;;;;;;5090265;28;20456;-76
2021/11/02 00:53:05;;;;;;;1.57;1.30;;;8.50;98.20;;;;;;5090303;28;20954;-76
2021/11/02 00:55:31;;;;;;;2.97;2.57;;;8.50;98.20;;;;;;5089647;28;20456;-76
2021/11/02 00:58:01;;;;;;;1.57;1.30;;;8.40;98.20;;;;;;5090144;28;20468;-76
2021/11/02 01:00:28;;;;;;;1.60;1.30;;;8.40;98.20;;;;;;5089879;28;20799;-76
2021/11/02 01:02:56;;;;;;;1.60;1.20;;;8.40;98.20;;;;;;5089963;28;20566;-76
2021/11/02 01:05:23;;;;;;;1.60;1.30;;;8.40;98.20;;;;;;5089292;28;20459;-75
2021/11/02 01:07:50;;;;;;;1.60;1.30;;;8.30;98.20;;;;;;5089758;28;20486;-75
2021/11/02 01:10:17;;;;;;;1.60;1.30;;;8.30;98.20;;;;;;5089637;28;20468;-75
2021/11/02 01:12:45;;;;;;;1.60;1.40;;;8.30;98.20;;;;;;5090555;28;20472;-75
2021/11/02 01:15:13;;;;;;;1.53;1.20;;;8.30;98.20;;;;;;5090844;28;20456;-75
2021/11/02 01:17:40;;;;;;;1.60;1.30;;;8.30;98.20;;;;;;5090837;28;20476;-75
2021/11/02 01:20:12;;;;;;;1.53;1.20;;;8.20;98.20;;;;;;5090866;28;20815;-76
2021/11/02 01:22:39;;;;;;;1.60;1.30;;;8.20;98.20;;;;;;5091281;28;20834;-76
2021/11/02 01:25:07;;;;;;;1.60;1.20;;;8.20;98.20;;;;;;5093287;28;20456;-76
2021/11/02 01:27:34;;;;;;;1.60;1.20;;;8.20;98.20;;;;;;5092830;28;20487;-76
2021/11/02 01:30:01;;;;;;;1.60;1.30;;;8.10;98.20;;;;;;5093718;28;20472;-76
2021/11/02 01:32:28;;;;;;;1.60;1.30;;;8.10;98.20;;;;;;5093545;28;20467;-76
2021/11/02 01:34:55;;;;;;;1.57;1.20;;;8.10;98.20;;;;;;5093392;28;20452;-76
2021/11/02 01:37:24;;;;;;;1.60;1.27;;;8.10;98.20;;;;;;5093436;28;20496;-75
2021/11/02 01:39:50;;;;;;;1.60;1.30;;;8.00;98.20;;;;;;5093213;28;20472;-75
2021/11/02 01:42:21;;;;;;;1.60;1.30;;;8.00;98.20;;;;;;5093706;28;20465;-75
2021/11/02 01:44:48;;;;;;;1.60;1.30;;;8.00;98.20;;;;;;5093685;28;20472;-76
2021/11/02 01:47:15;;;;;;;1.60;1.30;;;8.00;98.20;;;;;;5092907;28;21098;-76
2021/11/02 01:49:42;;;;;;;1.60;1.27;;;8.00;98.20;;;;;;5093264;28;20464;-76
2021/11/02 01:52:09;;;;;;;1.60;1.27;;;8.00;98.20;;;;;;5093101;28;20457;-76
2021/11/02 01:54:38;;;;;;;1.60;1.30;;;7.90;98.20;;;;;;5093114;28;20923;-76
2021/11/02 01:57:05;;;;;;;1.60;1.30;;;7.90;98.20;;;;;;5092792;28;20508;-76
2021/11/02 01:59:34;;;;;;;1.60;1.30;;;7.90;98.20;;;;;;5092309;28;20463;-76
2021/11/02 02:02:06;;;;;;;1.60;1.30;;;7.90;98.20;;;;;;5092807;28;20468;-76
2021/11/02 02:04:47;;;;;;;1.60;1.30;;;7.80;98.20;;;;;;5092882;28;20465;-76
2021/11/02 02:07:29;;;;;;;1.60;1.30;;;7.80;98.20;;;;;;5092586;28;20511;-76
2021/11/02 02:10:06;;;;;;;1.60;1.30;;;7.70;98.20;;;;;;5091967;28;20441;-76
2021/11/02 02:12:55;;;;;;;1.60;1.40;;;7.70;98.20;;;;;;5092433;28;20444;-76
2021/11/02 02:15:30;;;;;;;1.60;1.30;;;7.70;98.20;;;;;;5074251;28;20809;-76
2021/11/02 02:18:03;;;;;;;1.60;1.30;;;7.70;98.20;;;;;;5092216;28;20481;-76
2021/11/02 02:20:50;;;;;;;1.60;1.30;;;7.70;98.20;;;;;;5092613;28;20856;-76
2021/11/02 02:23:43;;;;;;;1.60;1.20;;;7.60;98.20;;;;;;5092550;28;20476;-76
2021/11/02 02:26:21;;;;;;;1.60;1.30;;;7.60;98.20;;;;;;5092211;28;20890;-76
2021/11/02 02:28:57;;;;;;;1.60;1.20;;;7.60;98.20;;;;;;5092050;28;20539;-76
2021/11/02 02:31:24;;;;;;;1.60;1.30;;;7.60;98.20;;;;;;5092272;28;20441;-76
2021/11/02 02:33:52;;;;;;;1.60;1.30;;;7.60;98.20;;;;;;5091391;28;20456;-76
2021/11/02 02:36:20;;;;;;;1.60;1.30;;;7.50;98.20;;;;;;5092295;28;20753;-76
2021/11/02 02:38:48;;;;;;;1.60;1.30;;;7.50;98.20;;;;;;5091759;28;20461;-76
2021/11/02 02:41:20;;;;;;;1.60;1.30;;;7.50;98.20;;;;;;5091557;28;20471;-76
2021/11/02 02:43:50;;;;;;;1.60;1.30;;;7.50;98.20;;;;;;5092416;28;20468;-76
2021/11/02 02:46:17;;;;;;;1.60;1.30;;;7.40;98.20;;;;;;5091712;28;20472;-76
2021/11/02 02:48:45;;;;;;;1.60;1.30;;;7.40;98.20;;;;;;5091580;28;20469;-76
2021/11/02 02:51:14;;;;;;;1.60;1.30;;;7.40;98.20;;;;;;5096800;28;20462;-76
2021/11/02 02:53:43;;;;;;;1.60;1.30;;;7.40;98.20;;;;;;5091476;28;20456;-76
2021/11/02 02:56:11;;;;;;;1.60;1.30;;;7.40;98.20;;;;;;5091583;28;20480;-76
2021/11/02 02:58:42;;;;;;;1.60;1.30;;;7.40;98.20;;;;;;5091142;28;20526;-76
2021/11/02 03:01:12;;;;;;;1.60;1.30;;;7.40;98.20;;;;;;5091640;28;20446;-76
2021/11/02 03:03:41;;;;;;;1.60;1.40;;;7.40;98.20;;;;;;5091416;28;20465;-76
2021/11/02 03:06:12;;;;;;;1.60;1.30;;;7.40;98.20;;;;;;5091541;28;20534;-76
2021/11/02 03:08:39;;;;;;;1.60;1.30;;;7.50;98.20;;;;;;5091473;28;20547;-76
2021/11/02 03:11:07;;;;;;;1.60;1.30;;;7.50;98.20;;;;;;5091418;28;21005;-76
2021/11/02 03:13:37;;;;;;;1.60;1.30;;;7.50;98.20;;;;;;5091375;28;20463;-76
2021/11/02 03:16:08;;;;;;;1.60;1.20;;;7.50;98.20;;;;;;5090595;28;20542;-76
2021/11/02 03:49:16;;;;;;;1.60;1.30;;;7.80;98.20;;;;;;5087985;28;20786;-76
2021/11/02 03:54:24;;;;;;;1.60;1.30;;;7.90;98.20;;;;;;5090261;28;20445;-76
2021/11/02 03:54:56;;;;;;;1.60;1.20;;;7.90;98.20;;;;;;5090373;28;21158;-76
2021/11/02 03:57:35;;;;;;;1.60;1.30;;;7.90;98.20;;;;;;5090015;28;20861;-76
2021/11/02 04:00:24;;;;;;;1.60;1.20;;;7.90;98.20;;;;;;5083398;28;20456;-76
2021/11/02 04:25:51;;;;;;;1.60;1.33;;;7.90;98.20;;;;;;5089940;28;20490;-76
2021/11/02 05:07:33;;;;;;;1.57;1.20;;;8.00;98.20;;;;;;5105117;28;20467;-76
2021/11/02 05:10:31;;;;;;;1.60;1.30;;;8.00;98.20;;;;;;5103612;28;20447;-77
2021/11/02 05:46:49;;;;;;;1.60;1.30;;;7.90;98.20;;;;;;5083486;28;20464;-77
2021/11/02 05:49:24;;;;;;;1.60;1.30;;;7.90;98.20;;;;;;5084333;28;20455;-76
2021/11/02 05:52:22;;;;;;;1.60;1.30;;;7.80;98.20;;;;;;5088830;28;22748;-76
2021/11/02 05:55:12;;;;;;;1.60;1.23;;;7.80;98.20;;;;;;5083374;28;20471;-76
2021/11/02 05:57:44;;;;;;;1.60;1.30;;;7.80;98.20;;;;;;5082167;28;20478;-76
2021/11/02 06:00:16;;;;;;;1.60;1.43;;;7.80;98.20;;;;;;5070770;28;20523;-76
2021/11/02 06:03:09;;;;;;;1.60;1.30;;;7.70;98.20;;;;;;5081943;28;20579;-76
2021/11/02 06:05:46;;;;;;;1.60;1.30;;;7.70;98.20;;;;;;5079709;28;20546;-76
2021/11/02 06:08:30;;;;;;;1.60;1.30;;;7.70;98.20;;;;;;5073261;28;20558;-77
2021/11/02 06:11:22;;;;;;;1.60;1.30;;;7.70;98.20;;;;;;5084246;28;20464;-76
2021/11/02 06:28:30;;;;;;;1.60;1.30;;;7.80;98.20;;;;;;5085929;28;20951;-74
2021/11/02 06:31:05;;;;;;;1.60;1.33;;;7.90;98.20;;;;;;5085291;28;20889;-75
2021/11/02 06:34:07;;;;;;;1.60;1.30;;;7.90;98.20;;;;;;5108267;22;20608;-74
2021/11/02 06:39:47;;;;;;;1.60;1.30;;;7.90;98.20;;;;;;5081118;28;20456;-75
2021/11/02 06:48:24;;;;;;;1.60;1.30;;;8.00;98.20;;;;;;5075231;28;20509;-74
2021/11/02 06:51:15;;;;;;;1.60;1.20;;;8.00;98.20;;;;;;5089973;28;20457;-76
2021/11/02 06:54:04;;;;;;;1.60;1.20;;;8.00;98.20;;;;;;5083297;28;21033;-74
2021/11/02 07:19:54;;;;;;;1.60;1.30;;;8.40;98.20;;;;;;5068853;28;20467;-75
2021/11/02 07:22:43;;;;;;;1.57;1.20;;;8.40;98.20;;;;;;5071441;28;20872;-76
2021/11/02 07:25:26;;;;;;;1.60;1.30;;;8.40;98.20;;;;;;5061102;28;20481;-74
2021/11/02 08:47:02;;;;;;;1.60;1.20;;;9.20;98.20;;;;;;5057783;28;20472;-76
2021/11/02 08:49:29;;;;;;;1.60;1.20;;;9.30;98.20;;;;;;5072822;28;20973;-76
2021/11/02 08:51:58;;;;;;;1.60;1.10;;;9.40;98.20;;;;;;5072392;28;20956;-76
2021/11/02 08:54:27;;;;;;;1.60;1.30;;;9.50;98.20;;;;;;5070565;28;20828;-74
2021/11/02 08:56:56;;;;;;;1.60;1.30;;;9.70;98.20;;;;;;5066410;28;20477;-73
2021/11/02 08:59:22;;;;;;;1.60;1.10;;;9.70;98.20;;;;;;5066010;28;20889;-74
2021/11/02 09:01:56;;;;;;;1.60;1.20;;;9.80;98.20;;;;;;5064308;28;20465;-74
2021/11/02 09:04:29;;;;;;;1.60;1.20;;;9.80;98.20;;;;;;5071020;28;20599;-74
2021/11/02 09:06:58;;;;;;;1.60;1.20;;;9.80;98.20;;;;;;5061754;28;20495;-74
2021/11/02 09:09:30;;;;;;;1.53;1.10;;;9.90;98.20;;;;;;5063872;28;20509;-74
2021/11/02 09:11:58;;;;;;;1.60;1.20;;;9.90;98.20;;;;;;5060607;28;20461;-76
2021/11/02 09:14:30;;;;;;;1.57;1.10;;;9.90;98.20;;;;;;5075223;28;20462;-74
2021/11/02 09:16:57;;;;;;;1.60;1.20;;;10.00;98.20;;;;;;5063319;28;20488;-74
2021/11/02 09:19:26;;;;;;;1.60;1.17;;;10.00;98.20;;;;;;5063585;28;20461;-76
2021/11/02 09:21:54;;;;;;;1.60;1.20;;;10.00;98.20;;;;;;5064648;28;20461;-74
2021/11/02 09:24:22;;;;;;;1.60;1.20;;;10.00;98.20;;;;;;5070900;28;20485;-74
2021/11/02 09:26:50;;;;;;;1.60;1.30;;;10.00;98.20;;;;;;5063474;28;20489;-73
2021/11/02 09:29:19;;;;;;;1.60;1.10;;;10.00;98.20;;;;;;5068696;28;20504;-73
2021/11/02 09:31:46;;;;;;;1.60;1.20;;;9.90;98.20;;;;;;5065487;28;20477;-74
2021/11/02 09:34:13;;;;;;;1.60;1.20;;;9.90;98.20;;;;;;5063574;28;20473;-74
2021/11/02 09:36:45;;;;;;;1.60;1.20;;;9.80;98.20;;;;;;5063753;28;20487;-74
2021/11/02 09:39:13;;;;;;;1.57;1.20;;;9.80;98.20;;;;;;5060000;28;20940;-74
2021/11/02 09:42:13;;;;;;;1.60;1.20;;;9.70;98.20;;;;;;5055684;28;20479;-74
2021/11/02 09:45:18;;;;;;;1.57;1.20;;;9.70;98.20;;;;;;5064294;28;20480;-74
2021/11/02 09:48:27;;;;;;;1.60;1.10;;;9.70;98.20;;;;;;5065574;28;20485;-74
2021/11/02 09:51:26;;;;;;;1.60;1.20;;;9.70;98.20;;;;;;5076737;28;20460;-74
2021/11/02 09:54:37;;;;;;;1.60;1.10;;;9.80;98.20;;;;;;5065880;28;20461;-74
2021/11/02 09:57:28;;;;;;;1.53;1.20;;;9.90;98.20;;;;;;5070768;28;20505;-76
2021/11/02 10:00:08;;;;;;;1.57;1.10;;;9.90;98.20;;;;;;5071112;28;20919;-75
2021/11/02 10:03:11;;;;;;;1.60;1.10;;;9.90;98.20;;;;;;5071898;28;20921;-76
2021/11/02 10:05:53;;;;;;;1.60;1.23;;;9.90;98.20;;;;;;5059357;28;20501;-75
2021/11/02 10:08:33;;;;;;;1.53;1.20;;;9.90;98.20;;;;;;5057696;28;20461;-76
2021/11/02 10:11:08;;;;;;;1.57;1.20;;;10.00;98.20;;;;;;5065317;28;20456;-76
2021/11/02 10:14:15;;;;;;;1.60;1.20;;;10.00;98.20;;;;;;5069364;28;20464;-75
2021/11/02 10:17:02;;;;;;;1.53;1.10;;;10.00;98.20;;;;;;5062860;28;20522;-75
2021/11/02 10:20:03;;;;;;;1.57;1.10;;;10.00;98.20;;;;;;5074596;28;20530;-74
2021/11/02 10:22:49;;;;;;;1.57;1.10;;;10.00;98.20;;;;;;5066029;28;20468;-74
2021/11/02 10:25:23;;;;;;;1.50;1.10;;;10.10;98.20;;;;;;5066486;28;20489;-74
2021/11/02 10:28:37;;;;;;;1.53;1.20;;;10.10;98.20;;;;;;5066627;28;20485;-74
2021/11/02 10:31:11;;;;;;;1.53;1.10;;;10.20;98.20;;;;;;5063244;28;20468;-74
2021/11/02 10:33:47;;;;;;;1.57;1.20;;;10.10;98.20;;;;;;5067505;28;20583;-74
2021/11/02 10:36:19;;;;;;;1.50;1.10;;;10.20;98.20;;;;;;5059985;28;20484;-74
2021/11/02 10:39:02;;;;;;;1.57;1.20;;;10.20;98.20;;;;;;5066227;28;20461;-74
2021/11/02 10:41:37;;;;;;;1.53;1.10;;;10.30;98.20;;;;;;5067376;28;21034;-75
2021/11/02 10:44:21;;;;;;;1.57;1.13;;;10.30;98.20;;;;;;5072841;28;20457;-74
2021/11/02 10:47:00;;;;;;;1.50;1.20;;;10.30;98.20;;;;;;5065044;28;20481;-74
2021/11/02 10:49:30;;;;;;;1.57;1.13;;;10.20;98.20;;;;;;5071599;28;20497;-75
2021/11/02 10:52:03;;;;;;;1.53;1.10;;;10.30;98.20;;;;;;5069808;28;20900;-75
2021/11/02 10:54:52;;;;;;;1.60;1.10;;;10.30;98.20;;;;;;5078336;28;20471;-75
2021/11/02 10:57:36;;;;;;;1.60;1.20;;;10.30;98.20;;;;;;5064705;28;20485;-75
2021/11/02 11:00:06;;;;;;;1.57;1.20;;;10.30;98.20;;;;;;5059573;28;20872;-75
2021/11/02 11:02:35;;;;;;;1.60;1.10;;;10.40;98.20;;;;;;5063266;28;20913;-75
2021/11/02 11:05:04;;;;;;;1.60;1.10;;;10.30;98.20;;;;;;5075994;28;20512;-74
2021/11/02 11:07:37;;;;;;;1.60;1.20;;;10.30;98.20;;;;;;5073724;28;20579;-74
2021/11/02 11:10:06;;;;;;;1.60;1.20;;;10.20;98.20;;;;;;5065523;28;20497;-75
2021/11/02 11:12:36;;;;;;;1.60;1.20;;;10.20;98.20;;;;;;5068466;28;20465;-75
2021/11/02 11:15:05;;;;;;;1.60;1.20;;;10.20;98.20;;;;;;5067028;28;20458;-75
2021/11/02 11:17:35;;;;;;;1.57;1.20;;;10.30;98.20;;;;;;5062784;28;20642;-76
2021/11/02 11:20:09;;;;;;;1.53;1.13;;;10.30;98.20;;;;;;5068351;28;20585;-74
2021/11/02 11:22:39;;;;;;;1.53;1.10;;;10.30;98.20;;;;;;5071835;28;20465;-75
2021/11/02 11:25:11;;;;;;;1.50;1.10;;;10.40;98.20;;;;;;5075601;28;20799;-76
2021/11/02 11:27:47;;;;;;;1.53;1.10;;;10.40;98.20;;;;;;5074852;28;20492;-76
2021/11/02 11:30:17;;;;;;;1.60;1.20;;;10.50;98.20;;;;;;5071140;28;21045;-75
2021/11/02 11:32:51;;;;;;;1.57;1.20;;;10.50;98.20;;;;;;5082347;28;20465;-75
2021/11/02 11:35:19;;;;;;;1.57;1.10;;;10.50;98.20;;;;;;5069562;28;20468;-75
2021/11/02 11:37:48;;;;;;;1.57;1.10;;;10.50;98.20;;;;;;5076515;28;20489;-75
2021/11/02 11:40:19;;;;;;;1.53;1.10;;;10.50;98.20;;;;;;5080702;28;21149;-75
2021/11/02 11:42:47;;;;;;;1.60;1.10;;;10.50;98.20;;;;;;5069307;28;20470;-73
2021/11/02 11:45:16;;;;;;;1.60;1.17;;;10.60;98.20;;;;;;5068346;28;20477;-74
2021/11/02 11:48:03;;;;;;;1.60;1.20;;;10.60;98.20;;;;;;5081891;22;20502;-74
2021/11/02 11:50:32;;;;;;;1.57;1.10;;;10.70;98.20;;;;;;5047161;28;20466;-75
2021/11/02 11:53:03;;;;;;;1.60;1.10;;;10.80;98.20;;;;;;5052153;28;20463;-75
2021/11/02 11:55:32;;;;;;;1.60;1.20;;;10.80;98.20;;;;;;5056418;28;20458;-74
2021/11/02 11:58:03;;;;;;;1.60;1.10;;;10.90;98.20;;;;;;5053484;28;20486;-75
2021/11/02 12:00:31;;;;;;;1.60;1.10;;;10.90;98.20;;;;;;5043775;28;20649;-76
2021/11/02 12:03:04;;;;;;;1.50;1.10;;;10.90;98.20;;;;;;5047108;28;20530;-74
2021/11/02 12:05:32;;;;;;;1.53;1.10;;;10.90;98.20;;;;;;5043624;28;20490;-74
2021/11/02 12:08:07;;;;;;;1.60;1.10;;;10.90;98.20;;;;;;5051604;28;20497;-76
2021/11/02 12:10:35;;;;;;;1.60;1.10;;;10.90;98.20;;;;;;5060505;28;20532;-76
2021/11/02 12:13:05;;;;;;;1.60;1.20;;;10.90;98.20;;;;;;5064216;28;20469;-75
2021/11/02 12:15:46;;;;;;;1.57;1.10;;;10.90;98.20;;;;;;5065329;28;20996;-75
2021/11/02 12:18:17;;;;;;;1.60;1.30;;;10.90;98.20;;;;;;5056671;28;20485;-75
2021/11/02 12:20:45;;;;;;;1.60;1.20;;;10.90;98.20;;;;;;5064028;28;20887;-75
2021/11/02 12:23:20;;;;;;;1.50;1.10;;;11.00;98.20;;;;;;5064770;28;20478;-75
2021/11/02 12:25:53;;;;;;;1.60;1.10;;;11.10;98.20;;;;;;5064046;28;20491;-75
2021/11/02 12:28:30;;;;;;;1.60;1.10;;;11.10;98.20;;;;;;5061516;28;20471;-75
2021/11/02 12:31:00;;;;;;;1.60;1.10;;;11.20;98.20;;;;;;5064005;28;20496;-75
2021/11/02 12:33:29;;;;;;;1.60;1.10;;;11.20;98.20;;;;;;5062724;28;20469;-75
2021/11/02 12:35:57;;;;;;;1.50;1.10;;;11.20;98.20;;;;;;5064242;28;20903;-75
2021/11/02 12:38:34;;;;;;;1.60;1.10;;;11.30;98.20;;;;;;5064444;28;20465;-75
2021/11/02 12:41:02;;;;;;;1.57;1.10;;;11.30;98.20;;;;;;5063579;28;20980;-75
2021/11/02 12:43:31;;;;;;;1.57;1.10;;;11.30;98.20;;;;;;5063081;28;20495;-74
2021/11/02 12:45:59;;;;;;;1.53;1.10;;;11.30;98.20;;;;;;5063542;28;20572;-75
2021/11/02 12:48:27;;;;;;;1.57;1.10;;;11.30;98.20;;;;;;5063808;28;20469;-75
2021/11/02 12:50:56;;;;;;;1.50;1.07;;;11.30;98.20;;;;;;5056801;28;20469;-75
2021/11/02 12:53:23;;;;;;;1.57;1.00;;;11.30;98.20;;;;;;5058273;28;20488;-75
2021/11/02 12:55:52;;;;;;;1.53;1.00;;;11.40;98.20;;;;;;5061917;28;20548;-75
2021/11/02 12:58:20;;;;;;;1.53;1.10;;;11.40;98.20;;;;;;5060156;28;20469;-75
2021/11/02 13:00:51;;;;;;;1.60;1.10;;;11.30;98.20;;;;;;5057788;28;20783;-75
2021/11/02 13:03:26;;;;;;;1.53;1.10;;;11.30;98.20;;;;;;5059082;28;20470;-75
2021/11/02 13:05:59;;;;;;;1.57;1.10;;;11.40;98.20;;;;;;5059631;28;20485;-75
2021/11/02 13:08:35;;;;;;;1.53;1.00;;;11.40;98.20;;;;;;5061047;28;20910;-75
2021/11/02 13:11:07;;;;;;;1.60;1.10;;;11.30;98.20;;;;;;5064034;28;20473;-75
2021/11/02 13:13:56;;;;;;;1.53;1.10;;;11.40;98.20;;;;;;5064276;28;20470;-75
2021/11/02 13:16:23;;;;;;;1.50;1.03;;;11.40;98.20;;;;;;5061306;28;20477;-75
2021/11/02 13:18:50;;;;;;;1.57;1.10;;;11.50;98.20;;;;;;5060984;28;20472;-75
2021/11/02 13:21:24;;;;;;;1.60;1.20;;;11.50;98.20;;;;;;5067336;28;20511;-75
2021/11/02 13:23:57;;;;;;;1.53;1.00;;;11.50;98.20;;;;;;5066475;28;20457;-75
2021/11/02 13:26:24;;;;;;;1.50;1.00;;;11.50;98.20;;;;;;5066965;28;20497;-75
2021/11/02 13:28:53;;;;;;;1.60;1.10;;;11.50;98.20;;;;;;5067831;28;20465;-75
2021/11/02 13:31:28;;;;;;;1.50;1.10;;;11.50;98.20;;;;;;5068164;28;20959;-74
2021/11/02 13:33:58;;;;;;;1.50;1.07;;;11.40;98.20;;;;;;5062494;28;20457;-75
2021/11/02 13:36:27;;;;;;;1.57;1.13;;;11.40;98.20;;;;;;5066894;28;20530;-74
2021/11/02 13:38:59;;;;;;;1.53;1.10;;;11.30;98.20;;;;;;5066565;28;20790;-74
2021/11/02 13:41:28;;;;;;;1.57;1.10;;;11.20;98.20;;;;;;5068190;28;20468;-74
2021/11/02 13:43:56;;;;;;;1.57;1.10;;;11.20;98.20;;;;;;5065151;28;20479;-74
2021/11/02 13:46:25;;;;;;;1.57;1.10;;;11.10;98.20;;;;;;5067157;28;21022;-75
2021/11/02 13:48:54;;;;;;;1.53;1.10;;;11.10;98.20;;;;;;5066405;28;20538;-74
2021/11/02 13:51:25;;;;;;;1.57;1.10;;;11.00;98.20;;;;;;5065865;28;20888;-74
2021/11/02 13:53:53;;;;;;;1.50;1.10;;;10.90;98.20;;;;;;5059896;28;20472;-75
2021/11/02 13:56:23;;;;;;;1.50;1.10;;;10.80;98.20;;;;;;5066333;28;20481;-75
2021/11/02 13:58:50;;;;;;;1.60;1.10;;;10.80;98.20;;;;;;5066448;28;21039;-75
2021/11/02 14:01:22;;;;;;;1.53;1.10;;;10.80;98.20;;;;;;5066754;28;20469;-75
2021/11/02 14:03:54;;;;;;;1.53;1.10;;;10.70;98.20;;;;;;5066841;28;20915;-75
2021/11/02 14:06:24;;;;;;;2.77;2.47;;;10.70;98.20;;;;;;5066392;28;20556;-75
2021/11/02 14:08:54;;;;;;;1.60;1.20;;;10.70;98.20;;;;;;5063876;28;20955;-75
2021/11/02 14:11:26;;;;;;;1.57;1.20;;;10.70;98.20;;;;;;5064977;28;20461;-75
2021/11/02 14:13:55;;;;;;;1.53;1.10;;;10.70;98.20;;;;;;5062759;28;20472;-75
2021/11/02 14:16:30;;;;;;;1.60;1.10;;;10.70;98.20;;;;;;5063261;28;20473;-75
2021/11/02 14:18:58;;;;;;;1.57;1.10;;;10.60;98.20;;;;;;5063867;28;20465;-75
2021/11/02 14:21:46;;;;;;;1.60;1.10;;;10.60;98.20;;;;;;5063112;28;20465;-75
2021/11/02 14:24:14;;;;;;;1.57;1.20;;;10.60;98.20;;;;;;5065898;28;20469;-75
2021/11/02 14:26:47;;;;;;;1.57;1.20;;;10.60;98.20;;;;;;5063152;28;20485;-75
2021/11/02 14:29:14;;;;;;;1.57;1.10;;;10.60;98.20;;;;;;5064167;28;20468;-75
2021/11/02 14:31:46;;;;;;;1.53;1.10;;;10.50;98.20;;;;;;5065949;28;20480;-75
2021/11/02 14:34:44;;;;;;;1.50;1.10;;;10.60;98.20;;;;;;5065847;28;20944;-74
2021/11/02 14:37:12;;;;;;;1.60;1.10;;;10.70;98.20;;;;;;5063087;28;20492;-75
2021/11/02 14:39:59;;;;;;;1.50;1.10;;;10.70;98.20;;;;;;5065853;28;20465;-75
2021/11/02 14:42:44;;;;;;;1.53;1.10;;;10.80;98.20;;;;;;5065052;28;20845;-75
2021/11/02 14:45:15;;;;;;;1.57;1.13;;;10.80;98.20;;;;;;5065014;28;20794;-75
2021/11/02 14:47:42;;;;;;;1.57;1.10;;;10.90;98.20;;;;;;5061459;28;20485;-75
2021/11/02 14:50:33;;;;;;;1.57;1.10;;;10.90;98.20;;;;;;5062923;28;20461;-75
2021/11/02 14:53:12;;;;;;;1.53;1.10;;;10.90;98.20;;;;;;5065219;28;20917;-75
2021/11/02 14:55:51;;;;;;;1.60;1.20;;;11.00;98.20;;;;;;5064731;28;20469;-75
2021/11/02 14:58:50;;;;;;;1.57;1.10;;;10.90;98.20;;;;;;5064925;28;20858;-75
2021/11/02 15:01:20;;;;;;;1.60;1.10;;;10.90;98.20;;;;;;5065072;28;20549;-75
2021/11/02 15:03:58;;;;;;;1.57;1.20;;;10.90;98.20;;;;;;5060392;28;20556;-75
2021/11/02 15:06:31;;;;;;;1.60;1.20;;;10.80;98.20;;;;;;5064317;28;20485;-75
2021/11/02 15:08:59;;;;;;;1.57;1.10;;;10.80;98.20;;;;;;5054970;28;20474;-75
2021/11/02 15:11:29;;;;;;;1.57;1.23;;;10.70;98.20;;;;;;5062744;28;20549;-75
2021/11/02 15:13:58;;;;;;;1.57;1.10;;;10.70;98.20;;;;;;5063334;28;20991;-74
2021/11/02 15:16:27;;;;;;;1.60;1.13;;;10.60;98.20;;;;;;5066178;28;20477;-74
2021/11/02 15:18:59;;;;;;;1.60;1.10;;;10.50;98.20;;;;;;5063840;28;20469;-74
2021/11/02 15:21:33;;;;;;;1.53;1.10;;;10.50;98.20;;;;;;5065495;28;20457;-75
2021/11/02 15:24:06;;;;;;;1.53;1.10;;;10.40;98.20;;;;;;5061892;28;20469;-75
2021/11/02 15:26:47;;;;;;;1.50;1.10;;;10.40;98.20;;;;;;5066792;28;20591;-74
2021/11/02 15:29:15;;;;;;;1.53;1.20;;;10.30;98.20;;;;;;5065502;28;20498;-76
2021/11/02 15:31:42;;;;;;;1.57;1.20;;;10.20;98.20;;;;;;5064751;28;20462;-75
2021/11/02 15:34:16;;;;;;;1.60;1.20;;;10.10;98.20;;;;;;5065779;28;20469;-74
2021/11/02 15:36:44;;;;;;;1.53;1.10;;;10.00;98.20;;;;;;5067846;28;20473;-74
2021/11/02 15:39:11;;;;;;;1.60;1.40;;;10.00;98.20;;;;;;5064511;28;20476;-74
2021/11/02 15:41:38;;;;;;;1.60;1.10;;;10.00;98.20;;;;;;5059538;28;20465;-74
2021/11/02 15:44:09;;;;;;;1.50;1.10;;;10.00;98.20;;;;;;5063195;28;20469;-76
2021/11/02 15:46:38;;;;;;;1.57;1.20;;;9.90;98.20;;;;;;5064670;28;20900;-75
2021/11/02 15:49:07;;;;;;;1.57;1.10;;;9.90;98.20;;;;;;5063243;28;20469;-75
2021/11/02 15:51:36;;;;;;;1.60;1.10;;;9.80;98.20;;;;;;5063927;28;20791;-76
2021/11/02 15:54:11;;;;;;;1.60;1.20;;;9.70;98.20;;;;;;5062702;28;20477;-76
2021/11/02 15:56:38;;;;;;;1.60;1.20;;;9.70;98.20;;;;;;5063563;28;20476;-76
2021/11/02 15:59:07;;;;;;;1.60;1.20;;;9.60;98.20;;;;;;5064430;28;20465;-76
2021/11/02 16:01:36;;;;;;;1.57;1.10;;;9.50;98.20;;;;;;5065879;28;20874;-76
2021/11/02 16:04:20;;;;;;;1.57;1.20;;;9.50;98.20;;;;;;5065083;28;20461;-75
2021/11/02 16:07:05;;;;;;;1.60;1.10;;;9.50;98.20;;;;;;5064382;28;20485;-76
2021/11/02 16:09:55;;;;;;;1.53;1.10;;;9.50;98.20;;;;;;5071993;22;20510;-73
2021/11/02 16:12:25;;;;;;;1.60;1.20;;;9.50;98.20;;;;;;5027188;28;20517;-73
2021/11/02 16:14:56;;;;;;;1.50;1.20;;;9.50;98.20;;;;;;5037340;28;20548;-73
2021/11/02 16:17:25;;;;;;;1.50;1.20;;;9.50;98.20;;;;;;5020483;28;20491;-73
2021/11/02 16:19:56;;;;;;;1.53;1.20;;;9.40;98.20;;;;;;5023450;28;20473;-74
2021/11/02 16:22:23;;;;;;;1.60;1.20;;;9.40;98.20;;;;;;5026905;28;20467;-73
2021/11/02 16:25:06;;;;;;;1.60;1.10;;;9.40;98.20;;;;;;5033414;28;20463;-73
2021/11/02 16:27:33;;;;;;;1.53;1.13;;;9.50;98.20;;;;;;5026708;28;21046;-73
2021/11/02 16:30:14;;;;;;;1.57;1.10;;;9.50;98.20;;;;;;5032516;28;21290;-73
2021/11/02 16:32:44;;;;;;;1.53;1.20;;;9.50;98.20;;;;;;5026399;28;20475;-73
2021/11/02 16:35:11;;;;;;;1.60;1.20;;;9.50;98.20;;;;;;5026703;28;20463;-74
2021/11/02 16:37:39;;;;;;;1.60;1.20;;;9.50;98.20;;;;;;5027369;28;20487;-73
2021/11/02 16:40:24;;;;;;;1.57;1.20;;;9.50;98.20;;;;;;5030748;28;20958;-73
2021/11/02 16:45:50;;;;;;;1.60;1.20;;;9.60;98.20;;;;;;5032238;28;20499;-72
2021/11/02 16:48:46;;;;;;;1.57;1.20;;;9.60;98.20;;;;;;5025554;28;20494;-74
2021/11/02 16:51:36;;;;;;;;;;;;;;;;;;;;;
2021/11/02 16:54:10;;;;;;;1.60;1.20;;;9.60;98.20;;;;;;5057871;22;20485;-75
2021/11/02 16:56:37;;;;;;;1.53;1.20;;;9.60;98.20;;;;;;5049251;28;20496;-76
2021/11/02 16:59:10;;;;;;;1.57;1.17;;;9.70;98.20;;;;;;5050433;28;20623;-76
2021/11/02 17:01:38;;;;;;;1.53;1.20;;;9.70;98.20;;;;;;5051852;28;20531;-76
2021/11/02 17:04:19;;;;;;;1.57;1.17;;;9.70;98.20;;;;;;5052604;28;20468;-76
2021/11/02 17:06:46;;;;;;;1.60;1.10;;;9.70;98.20;;;;;;5059186;28;20489;-75
2021/11/02 17:09:16;;;;;;;1.57;1.20;;;9.70;98.20;;;;;;5063634;28;20488;-75
2021/11/02 17:11:51;;;;;;;1.60;1.27;;;9.70;98.20;;;;;;5057979;28;20474;-75
2021/11/02 17:14:19;;;;;;;1.60;1.30;;;9.70;98.20;;;;;;5063190;28;20473;-74
2021/11/02 17:17:03;;;;;;;1.60;1.20;;;9.70;98.20;;;;;;5061211;28;20844;-75
2021/11/02 17:19:38;;;;;;;1.60;1.20;;;9.70;98.20;;;;;;5062155;28;20491;-76
2021/11/02 17:22:08;;;;;;;1.60;1.20;;;9.60;98.20;;;;;;5063384;28;20516;-74
2021/11/02 17:24:36;;;;;;;1.60;1.20;;;9.60;98.20;;;;;;5057405;28;20470;-76
2021/11/02 17:27:03;;;;;;;1.60;1.30;;;9.60;98.20;;;;;;5063710;28;20569;-75
2021/11/02 17:29:31;;;;;;;1.60;1.20;;;9.60;98.20;;;;;;5061200;28;20470;-74
2021/11/02 17:31:59;;;;;;;1.60;1.20;;;9.60;98.20;;;;;;5061888;28;20465;-75
2021/11/02 17:34:28;;;;;;;1.60;1.20;;;9.50;98.20;;;;;;5066476;28;20465;-76
2021/11/02 17:37:03;;;;;;;1.57;1.17;;;9.50;98.20;;;;;;5067635;28;20485;-76
2021/11/02 17:39:34;;;;;;;1.60;1.20;;;9.50;98.20;;;;;;5065841;28;20465;-76
2021/11/02 17:42:03;;;;;;;3.07;2.80;;;9.40;98.20;;;;;;5067937;28;20477;-75